createdAt,value
2023-03-13T00:00:58.875Z,6.92
2023-03-13T00:01:58.938Z,6.96
2023-03-13T00:02:58.866Z,6.92
2023-03-13T00:03:59.039Z,6.96
2023-03-13T00:04:58.908Z,7.05
2023-03-13T00:05:58.874Z,7.03
2023-03-13T00:06:58.886Z,7.03
2023-03-13T00:07:58.827Z,7.06
2023-03-13T00:08:58.809Z,6.97
2023-03-13T00:09:58.791Z,7.03
2023-03-13T00:10:58.774Z,7.05
2023-03-13T00:11:58.763Z,7.07
2023-03-13T00:12:58.754Z,7.10
2023-03-13T00:13:58.749Z,7.14
2023-03-13T00:14:58.723Z,7.11
2023-03-13T00:15:58.708Z,7.18
2023-03-13T00:16:58.708Z,7.15
2023-03-13T00:17:58.709Z,7.21
2023-03-13T00:18:58.684Z,7.18
2023-03-13T00:19:58.662Z,7.18
2023-03-13T00:20:58.653Z,7.18
2023-03-13T00:21:58.654Z,7.17
2023-03-13T00:22:58.679Z,7.23
2023-03-13T00:23:58.638Z,7.21
2023-03-13T00:24:58.599Z,7.32
2023-03-13T00:25:58.598Z,7.25
2023-03-13T00:26:58.592Z,7.23
2023-03-13T00:27:58.642Z,7.35
2023-03-13T00:28:58.576Z,7.15
2023-03-13T00:29:58.551Z,7.24
2023-03-13T00:30:58.548Z,7.25
2023-03-13T00:31:58.557Z,7.18
2023-03-13T00:32:58.718Z,7.29
2023-03-13T00:33:58.518Z,7.29
2023-03-13T00:34:58.504Z,7.31
2023-03-13T00:35:58.551Z,7.39
2023-03-13T00:36:58.492Z,7.32
2023-03-13T00:37:58.465Z,7.28
2023-03-13T00:38:58.444Z,7.31
2023-03-13T00:39:59.141Z,7.38
2023-03-13T00:40:58.429Z,7.38
2023-03-13T00:41:58.410Z,7.35
2023-03-13T00:42:58.414Z,7.39
2023-03-13T00:43:58.401Z,7.40
2023-03-13T00:44:58.376Z,7.43
2023-03-13T00:45:58.427Z,7.40
2023-03-13T00:46:58.368Z,7.43
2023-03-13T00:47:58.344Z,7.38
2023-03-13T00:48:58.329Z,7.38
2023-03-13T00:49:58.317Z,7.42
2023-03-13T00:50:58.347Z,7.35
2023-03-13T00:51:58.301Z,7.39
2023-03-13T00:52:58.283Z,7.35
2023-03-13T00:53:58.354Z,7.35
2023-03-13T00:54:58.275Z,7.36
2023-03-13T00:55:58.269Z,7.43
2023-03-13T00:56:58.240Z,7.33
2023-03-13T00:57:58.227Z,7.35
2023-03-13T00:58:58.217Z,7.32
2023-03-13T00:59:58.225Z,7.35
2023-03-13T01:00:58.467Z,7.35
2023-03-13T01:01:58.230Z,7.36
2023-03-13T01:02:58.298Z,7.35
2023-03-13T01:03:58.185Z,7.35
2023-03-13T01:05:00.112Z,7.42
2023-03-13T01:05:58.164Z,7.36
2023-03-13T01:06:58.151Z,7.40
2023-03-13T01:07:58.122Z,7.36
2023-03-13T01:08:58.119Z,7.38
2023-03-13T01:09:58.106Z,7.36
2023-03-13T01:10:58.197Z,7.32
2023-03-13T01:11:58.085Z,7.33
2023-03-13T01:12:58.186Z,7.32
2023-03-13T01:13:58.061Z,7.36
2023-03-13T01:14:58.134Z,7.32
2023-03-13T01:15:58.092Z,7.36
2023-03-13T01:16:58.026Z,7.39
2023-03-13T01:17:58.030Z,7.36
2023-03-13T01:18:58.004Z,7.38
2023-03-13T01:19:58.007Z,7.38
2023-03-13T01:20:57.993Z,7.40
2023-03-13T01:21:57.977Z,7.35
2023-03-13T01:22:57.984Z,7.39
2023-03-13T01:23:57.965Z,7.38
2023-03-13T01:24:57.958Z,7.40
2023-03-13T01:25:57.943Z,7.36
2023-03-13T01:26:57.926Z,7.38
2023-03-13T01:27:57.912Z,7.32
2023-03-13T01:28:57.909Z,7.33
2023-03-13T01:29:57.883Z,7.36
2023-03-13T01:30:57.912Z,7.40
2023-03-13T01:31:57.872Z,7.38
2023-03-13T01:32:57.948Z,7.39
2023-03-13T01:33:57.845Z,7.32
2023-03-13T01:34:57.829Z,7.40
2023-03-13T01:35:57.847Z,7.47
2023-03-13T01:36:57.811Z,7.32
2023-03-13T01:37:57.818Z,7.39
2023-03-13T01:38:57.821Z,7.29
2023-03-13T01:39:57.788Z,7.40
2023-03-13T01:40:57.770Z,7.40
2023-03-13T01:41:57.745Z,7.47
2023-03-13T01:42:57.750Z,7.42
2023-03-13T01:43:57.769Z,7.40
2023-03-13T01:44:57.714Z,7.39
2023-03-13T01:45:57.844Z,7.39
2023-03-13T01:46:57.694Z,7.40
2023-03-13T01:47:57.683Z,7.36
2023-03-13T01:48:57.663Z,7.36
2023-03-13T01:49:57.657Z,7.39
2023-03-13T01:50:57.651Z,7.35
2023-03-13T01:51:57.653Z,7.45
2023-03-13T01:52:57.628Z,7.42
2023-03-13T01:53:57.631Z,7.48
2023-03-13T01:54:57.622Z,7.45
2023-03-13T01:55:57.597Z,7.56
2023-03-13T01:56:57.579Z,7.50
2023-03-13T01:57:57.612Z,7.53
2023-03-13T01:58:57.559Z,7.42
2023-03-13T01:59:57.556Z,7.40
2023-03-13T02:00:57.559Z,7.38
2023-03-13T02:01:57.622Z,7.43
2023-03-13T02:02:57.973Z,7.40
2023-03-13T02:03:57.510Z,7.38
2023-03-13T02:04:57.494Z,7.38
2023-03-13T02:05:57.499Z,7.42
2023-03-13T02:06:57.469Z,7.33
2023-03-13T02:07:57.489Z,7.32
2023-03-13T02:08:57.451Z,7.39
2023-03-13T02:09:57.446Z,7.35
2023-03-13T02:10:57.448Z,7.40
2023-03-13T02:11:57.451Z,7.35
2023-03-13T02:12:57.407Z,7.32
2023-03-13T02:13:57.394Z,7.36
2023-03-13T02:14:57.384Z,7.35
2023-03-13T02:15:57.405Z,7.29
2023-03-13T02:16:57.467Z,7.35
2023-03-13T02:17:57.371Z,7.45
2023-03-13T02:18:57.336Z,7.31
2023-03-13T02:19:57.328Z,7.38
2023-03-13T02:20:57.330Z,7.36
2023-03-13T02:21:57.544Z,7.33
2023-03-13T02:22:57.293Z,7.36
2023-03-13T02:23:57.304Z,7.36
2023-03-13T02:24:57.271Z,7.42
2023-03-13T02:25:57.269Z,7.39
2023-03-13T02:26:57.270Z,7.38
2023-03-13T02:27:57.236Z,7.36
2023-03-13T02:28:57.225Z,7.36
2023-03-13T02:29:57.220Z,7.40
2023-03-13T02:30:57.271Z,7.38
2023-03-13T02:31:57.196Z,7.36
2023-03-13T02:32:57.252Z,7.36
2023-03-13T02:33:57.174Z,7.39
2023-03-13T02:34:57.175Z,7.35
2023-03-13T02:35:57.244Z,7.40
2023-03-13T02:36:57.140Z,7.36
2023-03-13T02:37:57.132Z,7.38
2023-03-13T02:38:57.115Z,7.40
2023-03-13T02:39:57.119Z,7.36
2023-03-13T02:40:57.093Z,7.39
2023-03-13T02:41:57.084Z,7.39
2023-03-13T02:42:57.104Z,7.33
2023-03-13T02:43:57.064Z,7.36
2023-03-13T02:44:57.050Z,7.39
2023-03-13T02:45:57.040Z,7.35
2023-03-13T02:46:57.164Z,7.36
2023-03-13T02:47:57.264Z,7.40
2023-03-13T02:48:57.089Z,7.42
2023-03-13T02:49:56.992Z,7.38
2023-03-13T02:50:56.989Z,7.40
2023-03-13T02:51:56.989Z,7.36
2023-03-13T02:52:56.978Z,7.36
2023-03-13T02:53:56.980Z,7.39
2023-03-13T02:54:56.943Z,7.39
2023-03-13T02:55:56.938Z,7.39
2023-03-13T02:56:56.924Z,7.39
2023-03-13T02:57:56.943Z,7.36
2023-03-13T02:58:56.917Z,7.45
2023-03-13T02:59:57.017Z,7.33
2023-03-13T03:00:56.952Z,7.38
2023-03-13T03:01:56.879Z,7.38
2023-03-13T03:02:56.860Z,7.42
2023-03-13T03:03:56.906Z,7.35
2023-03-13T03:04:57.021Z,7.38
2023-03-13T03:05:56.828Z,7.32
2023-03-13T03:06:56.814Z,7.39
2023-03-13T03:07:56.803Z,7.35
2023-03-13T03:08:56.817Z,7.35
2023-03-13T03:09:56.792Z,7.38
2023-03-13T03:10:56.775Z,7.35
2023-03-13T03:11:56.761Z,7.38
2023-03-13T03:12:56.783Z,7.38
2023-03-13T03:13:56.741Z,7.39
2023-03-13T03:14:56.742Z,7.35
2023-03-13T03:15:56.722Z,7.48
2023-03-13T03:16:57.686Z,7.43
2023-03-13T03:17:56.698Z,7.39
2023-03-13T03:18:56.700Z,7.48
2023-03-13T03:19:56.682Z,7.47
2023-03-13T03:20:56.659Z,7.43
2023-03-13T03:21:56.670Z,7.53
2023-03-13T03:22:56.652Z,7.45
2023-03-13T03:23:56.642Z,7.47
2023-03-13T03:24:56.627Z,7.51
2023-03-13T03:25:56.603Z,7.58
2023-03-13T03:26:56.626Z,7.48
2023-03-13T03:27:56.582Z,7.58
2023-03-13T03:28:56.583Z,7.57
2023-03-13T03:29:56.567Z,7.56
2023-03-13T03:30:56.570Z,7.57
2023-03-13T03:31:56.568Z,7.61
2023-03-13T03:32:56.628Z,7.63
2023-03-13T03:33:56.519Z,7.60
2023-03-13T03:34:56.498Z,7.61
2023-03-13T03:35:56.517Z,7.69
2023-03-13T03:36:56.501Z,7.69
2023-03-13T03:37:56.481Z,7.66
2023-03-13T03:38:56.452Z,7.73
2023-03-13T03:39:56.449Z,7.67
2023-03-13T03:40:56.431Z,7.66
2023-03-13T03:41:56.438Z,7.72
2023-03-13T03:42:56.424Z,7.73
2023-03-13T03:43:56.414Z,7.61
2023-03-13T03:44:56.397Z,7.77
2023-03-13T03:45:56.460Z,7.76
2023-03-13T03:46:56.513Z,7.75
2023-03-13T03:47:56.414Z,7.72
2023-03-13T03:48:56.368Z,7.72
2023-03-13T03:49:56.339Z,7.66
2023-03-13T03:50:56.323Z,7.73
2023-03-13T03:51:56.324Z,7.73
2023-03-13T03:52:56.312Z,7.73
2023-03-13T03:53:56.288Z,7.69
2023-03-13T03:54:56.281Z,7.72
2023-03-13T03:55:56.308Z,7.82
2023-03-13T03:56:56.292Z,7.72
2023-03-13T03:57:56.248Z,7.80
2023-03-13T03:58:56.242Z,7.80
2023-03-13T03:59:56.231Z,7.79
2023-03-13T04:00:56.235Z,7.79
2023-03-13T04:01:56.517Z,7.87
2023-03-13T04:02:56.358Z,7.82
2023-03-13T04:03:56.207Z,7.83
2023-03-13T04:04:56.175Z,7.90
2023-03-13T04:05:56.166Z,7.83
2023-03-13T04:06:56.168Z,7.88
2023-03-13T04:07:56.138Z,7.83
2023-03-13T04:08:56.155Z,7.90
2023-03-13T04:09:56.135Z,7.82
2023-03-13T04:10:56.121Z,7.87
2023-03-13T04:11:56.135Z,7.94
2023-03-13T04:12:56.087Z,7.88
2023-03-13T04:13:56.306Z,7.79
2023-03-13T04:14:56.063Z,7.93
2023-03-13T04:15:56.065Z,7.87
2023-03-13T04:16:56.116Z,7.87
2023-03-13T04:17:56.030Z,7.97
2023-03-13T04:18:56.036Z,7.90
2023-03-13T04:19:56.017Z,7.90
2023-03-13T04:20:56.048Z,7.90
2023-03-13T04:21:55.982Z,7.90
2023-03-13T04:22:55.974Z,7.95
2023-03-13T04:23:55.960Z,8.00
2023-03-13T04:24:55.990Z,7.95
2023-03-13T04:25:55.962Z,8.00
2023-03-13T04:26:55.946Z,7.98
2023-03-13T04:27:56.103Z,7.94
2023-03-13T04:28:55.985Z,8.01
2023-03-13T04:29:55.921Z,8.00
2023-03-13T04:30:55.936Z,8.01
2023-03-13T04:31:55.906Z,7.95
2023-03-13T04:32:55.981Z,8.03
2023-03-13T04:33:55.861Z,8.03
2023-03-13T04:34:55.993Z,8.00
2023-03-13T04:35:55.875Z,8.05
2023-03-13T04:36:55.819Z,8.05
2023-03-13T04:37:55.827Z,8.09
2023-03-13T04:38:55.809Z,8.08
2023-03-13T04:39:55.785Z,8.10
2023-03-13T04:40:55.776Z,8.13
2023-03-13T04:41:55.770Z,8.12
2023-03-13T04:42:55.758Z,8.05
2023-03-13T04:43:55.758Z,8.06
2023-03-13T04:44:55.753Z,8.08
2023-03-13T04:45:55.789Z,8.03
2023-03-13T04:46:55.757Z,8.08
2023-03-13T04:47:55.720Z,8.15
2023-03-13T04:48:55.694Z,7.97
2023-03-13T04:49:55.678Z,8.12
2023-03-13T04:50:55.689Z,8.19
2023-03-13T04:51:55.683Z,8.09
2023-03-13T04:52:55.646Z,8.16
2023-03-13T04:53:55.634Z,8.10
2023-03-13T04:54:55.622Z,8.10
2023-03-13T04:55:55.611Z,8.18
2023-03-13T04:56:55.601Z,8.18
2023-03-13T04:57:55.612Z,8.23
2023-03-13T04:58:55.579Z,8.09
2023-03-13T04:59:55.575Z,8.09
2023-03-13T05:00:55.698Z,8.12
2023-03-13T05:01:55.548Z,8.09
2023-03-13T05:02:55.538Z,8.15
2023-03-13T05:03:55.529Z,8.08
2023-03-13T05:04:55.537Z,8.13
2023-03-13T05:05:55.507Z,8.10
2023-03-13T05:06:55.577Z,8.15
2023-03-13T05:07:55.475Z,8.19
2023-03-13T05:08:55.469Z,8.19
2023-03-13T05:09:55.455Z,8.20
2023-03-13T05:10:55.463Z,8.19
2023-03-13T05:11:58.010Z,8.24
2023-03-13T05:12:55.426Z,8.18
2023-03-13T05:13:55.412Z,8.16
2023-03-13T05:14:55.405Z,8.19
2023-03-13T05:15:55.483Z,8.13
2023-03-13T05:16:55.408Z,8.20
2023-03-13T05:17:55.375Z,8.24
2023-03-13T05:18:55.360Z,8.15
2023-03-13T05:19:56.321Z,8.23
2023-03-13T05:20:55.354Z,8.19
2023-03-13T05:21:55.328Z,8.15
2023-03-13T05:22:55.336Z,8.15
2023-03-13T05:23:55.311Z,8.18
2023-03-13T05:24:55.322Z,8.18
2023-03-13T05:25:55.300Z,8.13
2023-03-13T05:26:55.282Z,8.15
2023-03-13T05:27:55.270Z,8.16
2023-03-13T05:28:55.283Z,8.12
2023-03-13T05:29:55.234Z,8.10
2023-03-13T05:30:55.368Z,8.16
2023-03-13T05:31:55.222Z,8.15
2023-03-13T05:32:55.275Z,8.20
2023-03-13T05:33:55.212Z,8.19
2023-03-13T05:34:55.187Z,8.19
2023-03-13T05:35:55.250Z,8.08
2023-03-13T05:36:55.168Z,8.19
2023-03-13T05:37:55.161Z,8.16
2023-03-13T05:38:55.186Z,8.15
2023-03-13T05:39:55.127Z,8.15
2023-03-13T05:40:55.118Z,8.19
2023-03-13T05:41:55.105Z,8.19
2023-03-13T05:42:55.096Z,8.10
2023-03-13T05:43:55.102Z,8.09
2023-03-13T05:44:55.085Z,8.06
2023-03-13T05:45:55.061Z,8.03
2023-03-13T05:46:55.051Z,8.12
2023-03-13T05:47:55.046Z,8.09
2023-03-13T05:48:55.035Z,8.10
2023-03-13T05:49:55.032Z,8.19
2023-03-13T05:50:55.206Z,8.12
2023-03-13T05:51:54.995Z,8.08
2023-03-13T05:52:54.987Z,8.12
2023-03-13T05:53:54.974Z,8.09
2023-03-13T05:54:55.000Z,8.15
2023-03-13T05:55:54.948Z,8.10
2023-03-13T05:56:54.948Z,8.15
2023-03-13T05:57:54.940Z,8.10
2023-03-13T05:58:54.921Z,8.12
2023-03-13T05:59:54.900Z,8.20
2023-03-13T06:00:54.889Z,8.08
2023-03-13T06:01:54.894Z,8.09
2023-03-13T06:02:54.884Z,8.12
2023-03-13T06:03:54.925Z,8.15
2023-03-13T06:04:54.967Z,8.13
2023-03-13T06:05:54.847Z,8.12
2023-03-13T06:06:54.856Z,8.05
2023-03-13T06:07:54.823Z,8.09
2023-03-13T06:08:54.799Z,8.08
2023-03-13T06:09:54.790Z,8.09
2023-03-13T06:10:55.277Z,8.16
2023-03-13T06:11:54.791Z,8.13
2023-03-13T06:12:54.766Z,8.16
2023-03-13T06:13:54.742Z,8.13
2023-03-13T06:14:55.722Z,8.20
2023-03-13T06:15:54.787Z,8.13
2023-03-13T06:16:54.959Z,8.19
2023-03-13T06:17:54.705Z,8.13
2023-03-13T06:18:54.692Z,8.13
2023-03-13T06:19:54.686Z,8.16
2023-03-13T06:20:54.666Z,8.23
2023-03-13T06:21:54.677Z,8.18
2023-03-13T06:22:54.645Z,8.30
2023-03-13T06:23:54.646Z,8.28
2023-03-13T06:24:54.621Z,8.23
2023-03-13T06:25:54.623Z,8.27
2023-03-13T06:26:54.651Z,8.30
2023-03-13T06:27:54.627Z,8.27
2023-03-13T06:28:54.581Z,8.28
2023-03-13T06:29:54.569Z,8.30
2023-03-13T06:30:54.555Z,8.27
2023-03-13T06:31:54.635Z,8.23
2023-03-13T06:32:54.687Z,8.28
2023-03-13T06:33:55.232Z,8.30
2023-03-13T06:34:54.526Z,8.28
2023-03-13T06:35:56.981Z,8.28
2023-03-13T06:36:54.497Z,8.24
2023-03-13T06:37:54.481Z,8.18
2023-03-13T06:38:54.490Z,8.30
2023-03-13T06:39:54.454Z,8.30
2023-03-13T06:40:54.509Z,8.30
2023-03-13T06:41:54.462Z,8.31
2023-03-13T06:42:54.453Z,8.28
2023-03-13T06:43:54.440Z,8.34
2023-03-13T06:44:54.402Z,8.31
2023-03-13T06:45:54.390Z,8.26
2023-03-13T06:46:54.454Z,8.27
2023-03-13T06:47:54.409Z,8.27
2023-03-13T06:48:54.366Z,8.24
2023-03-13T06:49:54.355Z,8.27
2023-03-13T06:50:54.343Z,8.27
2023-03-13T06:51:54.326Z,8.37
2023-03-13T06:52:55.240Z,8.41
2023-03-13T06:53:54.313Z,8.36
2023-03-13T06:54:54.295Z,8.37
2023-03-13T06:55:54.281Z,8.38
2023-03-13T06:56:54.280Z,8.41
2023-03-13T06:57:54.275Z,8.30
2023-03-13T06:58:54.264Z,8.31
2023-03-13T06:59:54.281Z,8.28
2023-03-13T07:00:54.259Z,8.36
2023-03-13T07:01:54.217Z,8.34
2023-03-13T07:02:54.218Z,8.36
2023-03-13T07:03:54.314Z,8.33
2023-03-13T07:04:54.272Z,8.33
2023-03-13T07:05:54.180Z,8.28
2023-03-13T07:06:54.162Z,8.42
2023-03-13T07:07:54.165Z,8.38
2023-03-13T07:08:54.139Z,8.34
2023-03-13T07:09:54.180Z,8.41
2023-03-13T07:10:54.121Z,8.42
2023-03-13T07:11:54.131Z,8.44
2023-03-13T07:12:54.121Z,8.38
2023-03-13T07:14:00.471Z,8.45
2023-03-13T07:14:55.099Z,8.45
2023-03-13T07:15:54.073Z,8.41
2023-03-13T07:16:54.263Z,8.48
2023-03-13T07:17:54.068Z,8.46
2023-03-13T07:18:54.040Z,8.42
2023-03-13T07:19:54.038Z,8.46
2023-03-13T07:20:54.033Z,8.53
2023-03-13T07:21:53.997Z,8.60
2023-03-13T07:22:54.005Z,8.64
2023-03-13T07:23:53.983Z,8.66
2023-03-13T07:24:54.018Z,8.61
2023-03-13T07:25:53.974Z,8.63
2023-03-13T07:27:06.001Z,8.70
2023-03-13T07:27:54.934Z,8.73
2023-03-13T07:28:54.754Z,8.73
2023-03-13T07:29:53.913Z,8.71
2023-03-13T07:30:53.973Z,8.71
2023-03-13T07:31:53.937Z,8.61
2023-03-13T07:32:53.967Z,8.63
2023-03-13T07:33:53.869Z,8.55
2023-03-13T07:34:53.861Z,8.60
2023-03-13T07:35:53.855Z,8.53
2023-03-13T07:36:53.864Z,8.58
2023-03-13T07:37:53.845Z,8.60
2023-03-13T07:38:53.810Z,8.56
2023-03-13T07:39:53.803Z,8.60
2023-03-13T07:40:53.811Z,8.70
2023-03-13T07:41:53.784Z,8.71
2023-03-13T07:42:53.970Z,8.73
2023-03-13T07:43:53.780Z,8.69
2023-03-13T07:44:53.753Z,8.70
2023-03-13T07:45:53.807Z,8.73
2023-03-13T07:46:53.765Z,8.74
2023-03-13T07:47:53.719Z,8.73
2023-03-13T07:48:53.703Z,8.70
2023-03-13T07:49:53.707Z,8.71
2023-03-13T07:50:53.680Z,8.70
2023-03-13T07:51:53.680Z,8.71
2023-03-13T07:52:53.720Z,8.70
2023-03-13T07:53:53.645Z,8.70
2023-03-13T07:54:53.637Z,8.82
2023-03-13T07:55:53.623Z,8.78
2023-03-13T07:56:53.715Z,8.85
2023-03-13T07:57:53.609Z,8.85
2023-03-13T07:58:53.609Z,8.85
2023-03-13T07:59:53.588Z,8.82
2023-03-13T08:00:53.573Z,8.92
2023-03-13T08:01:53.634Z,8.88
2023-03-13T08:02:53.633Z,8.91
2023-03-13T08:03:53.665Z,8.94
2023-03-13T08:04:53.597Z,8.87
2023-03-13T08:05:53.520Z,8.92
2023-03-13T08:06:53.521Z,8.94
2023-03-13T08:07:53.494Z,8.95
2023-03-13T08:08:53.598Z,8.99
2023-03-13T08:09:53.477Z,8.94
2023-03-13T08:10:53.465Z,8.97
2023-03-13T08:11:53.468Z,8.95
2023-03-13T08:12:53.433Z,8.99
2023-03-13T08:13:53.456Z,8.94
2023-03-13T08:14:53.417Z,8.91
2023-03-13T08:15:53.416Z,8.92
2023-03-13T08:16:53.481Z,8.95
2023-03-13T08:17:53.397Z,8.95
2023-03-13T08:18:53.382Z,8.84
2023-03-13T08:19:53.357Z,8.94
2023-03-13T08:20:53.364Z,9.02
2023-03-13T08:21:53.332Z,8.95
2023-03-13T08:22:53.352Z,9.00
2023-03-13T08:23:53.316Z,8.95
2023-03-13T08:24:53.321Z,8.91
2023-03-13T08:25:53.292Z,8.91
2023-03-13T08:26:53.280Z,8.94
2023-03-13T08:27:53.271Z,8.89
2023-03-13T08:28:53.253Z,8.95
2023-03-13T08:29:53.246Z,9.02
2023-03-13T08:30:53.298Z,8.97
2023-03-13T08:31:53.226Z,8.92
2023-03-13T08:32:53.253Z,8.92
2023-03-13T08:33:53.205Z,9.02
2023-03-13T08:34:53.249Z,9.11
2023-03-13T08:35:53.252Z,9.06
2023-03-13T08:36:53.166Z,9.03
2023-03-13T08:37:53.160Z,8.99
2023-03-13T08:38:53.163Z,9.03
2023-03-13T08:39:53.287Z,9.00
2023-03-13T08:40:53.158Z,9.02
2023-03-13T08:41:53.118Z,9.04
2023-03-13T08:42:53.103Z,9.02
2023-03-13T08:43:53.097Z,9.06
2023-03-13T08:44:53.188Z,9.02
2023-03-13T08:45:53.123Z,9.02
2023-03-13T08:46:53.071Z,9.11
2023-03-13T08:47:53.052Z,9.08
2023-03-13T08:48:53.047Z,9.11
2023-03-13T08:49:53.052Z,9.08
2023-03-13T08:50:53.042Z,9.13
2023-03-13T08:51:53.006Z,9.18
2023-03-13T08:52:53.006Z,9.23
2023-03-13T08:53:52.991Z,9.21
2023-03-13T08:54:53.004Z,9.21
2023-03-13T08:55:52.971Z,9.21
2023-03-13T08:56:53.030Z,9.14
2023-03-13T08:57:52.963Z,9.25
2023-03-13T08:58:53.057Z,9.21
2023-03-13T08:59:52.944Z,9.31
2023-03-13T09:00:52.907Z,9.22
2023-03-13T09:01:52.908Z,9.23
2023-03-13T09:02:52.953Z,9.31
2023-03-13T09:03:53.047Z,9.25
2023-03-13T09:04:52.864Z,9.25
2023-03-13T09:05:56.246Z,9.39
2023-03-13T09:06:52.869Z,9.44
2023-03-13T09:07:52.840Z,9.46
2023-03-13T09:08:52.971Z,9.46
2023-03-13T09:09:52.840Z,9.43
2023-03-13T09:10:52.856Z,9.41
2023-03-13T09:11:52.804Z,9.43
2023-03-13T09:12:52.780Z,9.46
2023-03-13T09:13:52.773Z,9.56
2023-03-13T09:14:52.761Z,9.56
2023-03-13T09:15:52.808Z,9.55
2023-03-13T09:16:52.738Z,9.59
2023-03-13T09:17:52.751Z,9.59
2023-03-13T09:18:52.904Z,9.61
2023-03-13T09:20:00.032Z,9.58
2023-03-13T09:20:53.704Z,9.62
2023-03-13T09:21:52.683Z,9.62
2023-03-13T09:22:52.750Z,9.62
2023-03-13T09:23:52.678Z,9.72
2023-03-13T09:24:52.649Z,9.66
2023-03-13T09:25:52.641Z,9.66
2023-03-13T09:27:01.049Z,9.65
2023-03-13T09:27:53.617Z,9.65
2023-03-13T09:28:52.863Z,9.73
2023-03-13T09:29:52.597Z,9.72
2023-03-13T09:30:52.596Z,9.69
2023-03-13T09:31:52.575Z,9.65
2023-03-13T09:32:52.609Z,9.65
2023-03-13T09:33:52.567Z,9.64
2023-03-13T09:34:52.546Z,9.64
2023-03-13T09:35:52.560Z,9.66
2023-03-13T09:36:52.524Z,9.69
2023-03-13T09:37:52.506Z,9.62
2023-03-13T09:38:52.628Z,9.68
2023-03-13T09:39:52.509Z,9.62
2023-03-13T09:41:05.423Z,9.64
2023-03-13T09:41:53.638Z,9.66
2023-03-13T09:42:52.452Z,9.79
2023-03-13T09:43:52.460Z,9.74
2023-03-13T09:44:52.431Z,9.61
2023-03-13T09:45:52.426Z,9.66
2023-03-13T09:46:52.563Z,9.72
2023-03-13T09:47:52.399Z,9.66
2023-03-13T09:48:52.440Z,9.68
2023-03-13T09:49:52.395Z,9.69
2023-03-13T09:50:52.365Z,9.82
2023-03-13T09:51:52.352Z,9.74
2023-03-13T09:52:52.349Z,9.72
2023-03-13T09:53:52.349Z,9.91
2023-03-13T09:54:52.349Z,9.87
2023-03-13T09:55:52.326Z,9.92
2023-03-13T09:56:52.311Z,9.82
2023-03-13T09:57:52.283Z,9.87
2023-03-13T09:58:52.384Z,9.91
2023-03-13T09:59:52.263Z,9.91
2023-03-13T10:00:52.426Z,9.91
2023-03-13T10:01:52.362Z,9.89
2023-03-13T10:02:52.232Z,9.99
2023-03-13T10:03:52.223Z,9.97
2023-03-13T10:04:52.299Z,10.02
2023-03-13T10:05:52.199Z,9.97
2023-03-13T10:07:42.322Z,10.05
2023-03-13T10:08:42.309Z,10.07
2023-03-13T10:09:42.301Z,10.09
2023-03-13T10:10:42.323Z,10.15
2023-03-13T10:11:42.294Z,10.20
2023-03-13T10:12:42.266Z,10.17
2023-03-13T10:13:42.255Z,10.16
2023-03-13T10:14:42.242Z,10.13
2023-03-13T10:15:42.302Z,10.17
2023-03-13T10:16:42.311Z,10.25
2023-03-13T10:17:42.219Z,10.20
2023-03-13T10:18:42.197Z,10.30
2023-03-13T10:19:42.202Z,10.25
2023-03-13T10:20:42.216Z,10.15
2023-03-13T10:21:42.158Z,10.19
2023-03-13T10:22:43.037Z,10.16
2023-03-13T10:23:42.144Z,10.16
2023-03-13T10:24:42.135Z,10.28
2023-03-13T10:25:42.131Z,10.34
2023-03-13T10:26:42.148Z,10.31
2023-03-13T10:27:42.201Z,10.38
2023-03-13T10:28:42.089Z,10.46
2023-03-13T10:29:42.086Z,10.51
2023-03-13T10:30:42.143Z,10.51
2023-03-13T10:31:42.116Z,10.46
2023-03-13T10:32:43.061Z,10.59
2023-03-13T10:33:42.053Z,10.63
2023-03-13T10:34:42.552Z,10.74
2023-03-13T10:35:42.076Z,10.86
2023-03-13T10:36:41.995Z,10.89
2023-03-13T10:37:41.986Z,10.86
2023-03-13T10:38:41.978Z,10.86
2023-03-13T10:39:43.620Z,10.97
2023-03-13T10:40:41.990Z,10.93
2023-03-13T10:41:41.994Z,11.05
2023-03-13T10:42:41.945Z,10.94
2023-03-13T10:43:41.925Z,10.99
2023-03-13T10:44:41.918Z,10.97
2023-03-13T10:45:41.920Z,10.99
2023-03-13T10:46:41.978Z,11.14
2023-03-13T10:47:41.874Z,11.30
2023-03-13T10:48:41.868Z,11.30
2023-03-13T10:49:41.867Z,11.43
2023-03-13T10:50:41.847Z,11.44
2023-03-13T10:51:42.538Z,11.47
2023-03-13T10:52:41.823Z,11.43
2023-03-13T10:53:41.820Z,11.48
2023-03-13T10:54:41.793Z,11.57
2023-03-13T10:55:41.798Z,11.66
2023-03-13T10:56:44.537Z,11.75
2023-03-13T10:57:41.763Z,11.75
2023-03-13T10:58:41.774Z,11.81
2023-03-13T10:59:41.745Z,12.07
2023-03-13T11:00:41.753Z,12.18
2023-03-13T11:01:41.721Z,12.37
2023-03-13T11:02:41.877Z,12.49
2023-03-13T11:03:41.766Z,12.50
2023-03-13T11:04:41.710Z,12.65
2023-03-13T11:05:41.678Z,12.65
2023-03-13T11:06:41.670Z,12.57
2023-03-13T11:07:41.654Z,12.53
2023-03-13T11:08:41.735Z,12.43
2023-03-13T11:09:42.551Z,12.46
2023-03-13T11:10:41.633Z,12.49
2023-03-13T11:11:42.550Z,12.47
2023-03-13T11:12:41.603Z,12.46
2023-03-13T11:13:41.588Z,12.50
2023-03-13T11:14:41.659Z,12.53
2023-03-13T11:15:41.570Z,12.53
2023-03-13T11:16:41.610Z,12.75
2023-03-13T11:17:41.553Z,13.04
2023-03-13T11:18:41.559Z,13.50
2023-03-13T11:19:41.539Z,14.17
2023-03-13T11:20:41.507Z,14.78
2023-03-13T11:21:41.502Z,14.85
2023-03-13T11:22:41.497Z,15.02
2023-03-13T11:23:41.477Z,15.07
2023-03-13T11:24:41.485Z,15.18
2023-03-13T11:25:41.468Z,15.22
2023-03-13T11:26:41.473Z,15.15
2023-03-13T11:27:41.512Z,14.77
2023-03-13T11:28:41.435Z,14.58
2023-03-13T11:29:41.443Z,14.44
2023-03-13T11:30:41.414Z,14.55
2023-03-13T11:31:41.457Z,14.62
2023-03-13T11:32:41.421Z,14.48
2023-03-13T11:33:42.074Z,14.44
2023-03-13T11:34:41.357Z,14.43
2023-03-13T11:35:42.081Z,14.45
2023-03-13T11:36:41.328Z,14.25
2023-03-13T11:37:42.521Z,14.14
2023-03-13T11:38:41.327Z,13.99
2023-03-13T11:39:43.018Z,13.96
2023-03-13T11:40:41.290Z,14.05
2023-03-13T11:41:44.100Z,14.00
2023-03-13T11:42:41.281Z,13.99
2023-03-13T11:43:42.455Z,13.92
2023-03-13T11:44:41.400Z,13.90
2023-03-13T11:45:41.308Z,13.92
2023-03-13T11:46:42.285Z,13.95
2023-03-13T11:47:41.216Z,13.89
2023-03-13T11:48:42.135Z,14.07
2023-03-13T11:49:41.198Z,14.15
2023-03-13T11:50:41.169Z,14.25
2023-03-13T11:51:41.273Z,14.12
2023-03-13T11:52:41.257Z,14.00
2023-03-13T11:53:41.161Z,13.93
2023-03-13T11:54:41.127Z,13.78
2023-03-13T11:55:41.118Z,13.97
2023-03-13T11:56:41.114Z,13.95
2023-03-13T11:57:41.117Z,13.83
2023-03-13T11:58:41.081Z,14.03
2023-03-13T11:59:41.073Z,13.90
2023-03-13T12:00:41.140Z,13.77
2023-03-13T12:01:41.050Z,13.74
2023-03-13T12:02:41.232Z,13.70
2023-03-13T12:03:41.128Z,13.77
2023-03-13T12:04:41.110Z,13.60
2023-03-13T12:05:41.037Z,13.62
2023-03-13T12:06:40.995Z,13.72
2023-03-13T12:07:41.004Z,13.75
2023-03-13T12:08:40.984Z,13.81
2023-03-13T12:09:41.106Z,13.78
2023-03-13T12:10:40.943Z,13.78
2023-03-13T12:11:40.942Z,13.78
2023-03-13T12:12:40.944Z,13.87
2023-03-13T12:13:40.937Z,13.95
2023-03-13T12:14:40.923Z,14.03
2023-03-13T12:15:40.908Z,14.11
2023-03-13T12:16:41.055Z,14.36
2023-03-13T12:17:40.927Z,14.48
2023-03-13T12:18:40.889Z,14.60
2023-03-13T12:19:40.879Z,14.82
2023-03-13T12:20:40.836Z,14.82
2023-03-13T12:21:41.619Z,14.81
2023-03-13T12:22:40.829Z,14.63
2023-03-13T12:23:40.835Z,14.73
2023-03-13T12:24:40.796Z,14.59
2023-03-13T12:25:40.864Z,14.65
2023-03-13T12:26:40.772Z,14.66
2023-03-13T12:27:40.764Z,14.63
2023-03-13T12:28:40.938Z,14.82
2023-03-13T12:29:40.741Z,15.02
2023-03-13T12:30:40.793Z,15.11
2023-03-13T12:31:40.736Z,15.21
2023-03-13T12:32:40.791Z,15.21
2023-03-13T12:33:40.706Z,15.02
2023-03-13T12:34:40.721Z,15.00
2023-03-13T12:35:40.674Z,15.02
2023-03-13T12:36:40.666Z,15.28
2023-03-13T12:37:40.652Z,15.40
2023-03-13T12:38:41.093Z,15.64
2023-03-13T12:39:41.655Z,15.82
2023-03-13T12:40:42.620Z,15.97
2023-03-13T12:41:40.635Z,15.83
2023-03-13T12:42:40.614Z,15.86
2023-03-13T12:43:40.622Z,15.77
2023-03-13T12:44:40.602Z,15.80
2023-03-13T12:45:40.709Z,15.72
2023-03-13T12:46:43.148Z,15.68
2023-03-13T12:47:40.544Z,15.64
2023-03-13T12:48:41.104Z,15.83
2023-03-13T12:49:40.522Z,16.13
2023-03-13T12:50:40.582Z,16.23
2023-03-13T12:51:40.672Z,16.16
2023-03-13T12:52:40.539Z,16.17
2023-03-13T12:53:40.525Z,16.24
2023-03-13T12:54:40.476Z,16.28
2023-03-13T12:55:40.453Z,16.65
2023-03-13T12:56:40.442Z,16.81
2023-03-13T12:57:40.459Z,16.86
2023-03-13T12:58:40.485Z,16.75
2023-03-13T12:59:41.544Z,16.69
2023-03-13T13:00:40.463Z,16.64
2023-03-13T13:01:40.488Z,16.81
2023-03-13T13:02:40.438Z,16.56
2023-03-13T13:03:40.372Z,16.56
2023-03-13T13:04:40.439Z,16.54
2023-03-13T13:05:40.344Z,16.78
2023-03-13T13:06:40.353Z,17.14
2023-03-13T13:07:40.418Z,17.12
2023-03-13T13:08:40.312Z,16.99
2023-03-13T13:09:40.305Z,17.02
2023-03-13T13:10:40.283Z,17.20
2023-03-13T13:11:40.290Z,17.24
2023-03-13T13:12:40.277Z,17.34
2023-03-13T13:13:40.265Z,17.34